Time;durP1;ratioP1;P1;durP2;ratioP2;P2;SDS_P1;SDS_P2;PMS_P1;PMS_P2;Temp;Humidity;BMP_temperature;BMP_pressure;BME280_temperature;BME280_humidity;BME280_pressure;Samples;Min_cycle;Max_cycle;Signal;HPM_P1;HPM_P2
2022/10/01 00:01:47;;;;;;;11.07;8.95;;;;;;;;;;6271568;22;20042;-85
2022/10/01 00:04:13;;;;;;;;;;;;;;;;;;6258458;22;21044;-86
2022/10/01 00:06:39;;;;;;;10.82;9.80;;;;;;;;;;6270187;22;19960;-86
2022/10/01 00:09:05;;;;;;;11.55;10.35;;;;;;;;;;6298938;22;20050;-86
2022/10/01 00:11:33;;;;;;;12.52;11.18;;;;;;;;;;6295762;22;20011;-86
2022/10/01 00:14:00;;;;;;;15.70;11.85;;;;;;;;;;6245508;22;20506;-86
2022/10/01 00:16:27;;;;;;;11.38;10.00;;;;;;;;;;6243114;22;20015;-85
2022/10/01 00:18:53;;;;;;;13.13;10.55;;;;;;;;;;6222709;22;20791;-85
2022/10/01 00:21:33;;;;;;;14.23;11.80;;;;;;;;;;6317922;22;20023;-84
2022/10/01 00:24:00;;;;;;;15.45;12.93;;;;;;;;;;6324865;22;20019;-85
2022/10/01 00:26:27;;;;;;;16.27;12.50;;;;;;;;;;6314297;22;20026;-85
2022/10/01 00:28:55;;;;;;;13.10;11.70;;;;;;;;;;6300128;22;20088;-84
2022/10/01 00:31:21;;;;;;;14.88;13.30;;;;;;;;;;6275833;22;20026;-85
2022/10/01 00:33:47;;;;;;;16.60;13.32;;;;;;;;;;6302997;22;20042;-85
2022/10/01 00:36:13;;;;;;;15.95;14.27;;;;;;;;;;6302631;22;20012;-86
2022/10/01 00:38:40;;;;;;;15.20;12.95;;;;;;;;;;6301236;22;20077;-85
2022/10/01 00:41:07;;;;;;;17.13;14.75;;;;;;;;;;6275419;22;20427;-86
2022/10/01 00:43:35;;;;;;;16.48;14.00;;;;;;;;;;6275946;22;20026;-87
2022/10/01 00:46:12;;;;;;;17.60;15.63;;;;;;;;;;6301781;22;20313;-86
2022/10/01 00:48:43;;;;;;;17.75;14.63;;;;;;;;;;6272875;22;20077;-87
2022/10/01 00:51:09;;;;;;;17.38;15.57;;;;;;;;;;6272040;22;20022;-86
2022/10/01 00:53:37;;;;;;;18.05;16.25;;;;;;;;;;6274327;22;20055;-85
2022/10/01 00:58:29;;;;;;;22.23;18.85;;;;;;;;;;6329462;22;20030;-87
2022/10/01 01:00:55;;;;;;;17.02;15.20;;;;;;;;;;6301147;22;20455;-88
2022/10/01 01:03:22;;;;;;;20.83;16.38;;;;;;;;;;6276707;22;20102;-84
2022/10/01 01:05:49;;;;;;;23.88;16.90;;;;;;;;;;6328952;22;20068;-85
2022/10/01 01:08:15;;;;;;;21.15;17.00;;;;;;;;;;6327450;22;20030;-87
2022/10/01 01:11:00;;;;;;;19.90;17.80;;;;;;;;;;6330197;22;20073;-87
2022/10/01 01:13:29;;;;;;;20.15;17.40;;;;;;;;;;6329126;22;20027;-87
2022/10/01 01:15:59;;;;;;;19.35;17.35;;;;;;;;;;6301535;22;20664;-87
2022/10/01 01:18:32;;;;;;;20.77;16.38;;;;;;;;;;6274485;22;20015;-87
2022/10/01 01:23:40;;;;;;;21.52;19.17;;;;;;;;;;6332664;22;20103;-87
2022/10/01 01:26:33;;;;;;;23.75;17.50;;;11.00;99.90;;;;;;6304730;22;20025;-87
2022/10/01 01:29:10;;;;;;;25.80;19.30;;;;;;;;;;6307826;22;20022;-86
2022/10/01 01:31:46;;;;;;;22.70;19.17;;;;;;;;;;6284130;22;20018;-87
2022/10/01 01:34:14;;;;;;;20.90;18.50;;;;;;;;;;6283785;22;20038;-87
2022/10/01 01:36:44;;;;;;;22.30;18.63;;;;;;;;;;6335252;22;20057;-87
2022/10/01 01:42:37;;;;;;;22.38;17.92;;;;;;;;;;6334553;22;20061;-85
2022/10/01 01:45:07;;;;;;;33.05;22.50;;;;;;;;;;6333974;22;20027;-86
2022/10/01 01:47:38;;;;;;;27.98;20.08;;;;;;;;;;6334443;22;20015;-85
2022/10/01 01:50:06;;;;;;;22.73;17.33;;;;;;;;;;6278045;22;20050;-84
2022/10/01 01:52:33;;;;;;;29.50;21.02;;;;;;;;;;6280673;22;20093;-85
2022/10/01 01:55:00;;;;;;;22.23;19.70;;;;;;;;;;6305189;22;20019;-85
2022/10/01 01:57:26;;;;;;;26.10;19.98;;;;;;;;;;6306166;22;20015;-85
2022/10/01 01:59:54;;;;;;;23.85;18.38;;;;;;;;;;6278554;22;20019;-85
2022/10/01 02:02:32;;;;;;;22.15;19.88;;;;;;;;;;6333674;22;20015;-86
2022/10/01 02:11:53;;;;;;;27.63;21.25;;;;;;;;;;6313876;22;20038;-87
2022/10/01 02:14:22;;;;;;;35.65;26.98;;;;;;;;;;6273722;22;20114;-87
2022/10/01 02:16:52;;;;;;;52.28;34.95;;;;;;;;;;6298257;22;20019;-85
2022/10/01 02:19:24;;;;;;;41.72;32.95;;;;;;;;;;6272670;22;20364;-87
2022/10/01 02:22:23;;;;;;;50.83;34.05;;;;;;;;;;6296464;22;20349;-85
2022/10/01 02:42:30;;;;;;;25.92;21.92;;;;;;;;;;6330687;22;20014;-86
2022/10/01 02:45:01;;;;;;;28.60;19.98;;;;;;;;;;6299997;22;20038;-85
2022/10/01 03:04:51;;;;;;;25.52;18.83;;;;;;;;;;6267486;22;20348;-86
2022/10/01 03:07:17;;;;;;;27.10;18.05;;;;;;;;;;6237621;22;20815;-87
2022/10/01 03:15:37;;;;;;;24.88;20.00;;;;;;;;;;6275566;22;20028;-88
2022/10/01 03:18:03;;;;;;;25.58;20.42;;;;;;;;;;6186764;22;20398;-86
2022/10/01 03:26:56;;;;;;;22.63;15.68;;;;;;;;;;6208196;23;20554;-89
2022/10/01 03:29:22;;;;;;;23.45;18.27;;;;;;;;;;6203792;23;20017;-88
2022/10/01 03:31:48;;;;;;;21.52;17.30;;;;;;;;;;6204704;23;20021;-88
2022/10/01 03:34:14;;;;;;;22.88;19.02;;;;;;;;;;6206064;23;20036;-85
2022/10/01 03:36:40;;;;;;;22.55;18.60;;;;;;;;;;6176029;23;20032;-87
2022/10/01 03:39:07;;;;;;;22.58;18.17;;;;;;;;;;6179772;23;20017;-86
2022/10/01 03:41:33;;;;;;;18.77;15.60;;;;;;;;;;6152346;23;20021;-86
2022/10/01 03:43:59;;;;;;;22.70;16.77;;;;;;;;;;6204819;23;20024;-84
2022/10/01 03:46:25;;;;;;;17.40;13.95;;;;;;;;;;6174967;23;20441;-85
2022/10/01 03:48:51;;;;;;;21.92;16.33;;;;;;;;;;6154094;23;20074;-85
2022/10/01 03:51:21;;;;;;;18.48;16.02;;;;;;;;;;6215573;23;20017;-85
2022/10/01 03:53:47;;;;;;;18.17;15.00;;;;;;;;;;6218779;23;20032;-84
2022/10/01 03:56:14;;;;;;;21.55;15.57;;;;;;;;;;6220836;23;20071;-86
2022/10/01 03:58:40;;;;;;;15.15;13.48;;;;;;;;;;6157403;23;20051;-86
2022/10/01 04:01:18;;;;;;;18.77;13.52;;;;;;;;;;6207884;23;20163;-86
2022/10/01 04:03:45;;;;;;;16.95;13.15;;;;;;;;;;6177136;23;20024;-86
2022/10/01 04:06:11;;;;;;;12.90;8.95;;;;;;;;;;6156289;23;20020;-86
2022/10/01 04:08:37;;;;;;;13.27;11.52;;;;;;;;;;6176746;23;20558;-85
2022/10/01 04:11:04;;;;;;;16.77;11.55;;;;;;;;;;6180123;23;20020;-88
2022/10/01 04:13:30;;;;;;;10.40;8.98;;;;;;;;;;6206157;23;20044;-86
2022/10/01 04:15:56;;;;;;;10.25;9.20;;;;;;;;;;6206838;23;20461;-86
2022/10/01 04:18:47;;;;;;;10.23;8.90;;;;;;;;;;6179538;23;20021;-89
2022/10/01 04:21:14;;;;;;;8.65;7.60;;;;;;;;;;6154101;23;20114;-86
2022/10/01 04:23:40;;;;;;;6.85;6.15;;;;;;;;;;6152952;23;20099;-86
2022/10/01 04:26:07;;;;;;;6.85;6.03;;;;;;;;;;6181109;23;20365;-85
2022/10/01 04:28:33;;;;;;;5.75;5.22;;;;;;;;;;6178748;23;20875;-84
2022/10/01 04:31:23;;;;;;;6.82;5.70;;;;;;;;;;6204821;23;20032;-85
2022/10/01 04:33:50;;;;;;;5.32;4.82;;;;;;;;;;6157206;23;20023;-85
2022/10/01 04:36:16;;;;;;;5.82;5.00;;;;;;;;;;6179008;23;20021;-86
2022/10/01 04:42:25;;;;;;;4.30;3.90;;;;;;;;;;6267071;22;20101;-84
2022/10/01 04:44:51;;;;;;;6.00;4.40;;;;;;;;;;6271144;22;20019;-86
2022/10/01 04:47:17;;;;;;;6.57;4.10;;;;;;;;;;6248524;22;20023;-84
2022/10/01 04:49:43;;;;;;;6.50;4.47;;;;;;;;;;6274437;22;20045;-84
2022/10/01 04:52:09;;;;;;;4.95;4.13;;;;;;;;;;6247480;22;20057;-83
2022/10/01 04:55:14;;;;;;;4.20;3.80;;;;;;;;;;6220239;22;20528;-84
2022/10/01 04:57:40;;;;;;;4.53;3.88;;;;;;;;;;6289827;22;20023;-83
2022/10/01 05:00:08;;;;;;;5.57;3.70;;;;;;;;;;6269647;22;20094;-85
2022/10/01 05:02:38;;;;;;;4.88;4.13;;;;;;;;;;6277336;22;20023;31
2022/10/01 05:08:05;;;;;;;4.57;4.18;;;;;;;;;;6298544;22;20034;-85
2022/10/01 05:10:31;;;;;;;3.70;3.40;;;;;;;;;;6271524;22;20662;-83
2022/10/01 05:13:00;;;;;;;4.53;4.10;;;;;;;;;;6299068;22;20478;-86
2022/10/01 05:15:45;;;;;;;4.07;3.65;;;;;;;;;;6231498;23;20015;-85
2022/10/01 05:18:11;;;;;;;3.95;3.65;;;;;;;;;;6208600;23;20047;-85
2022/10/01 05:20:44;;;;;;;8.07;4.78;;;;;;;;;;6209076;23;20020;-85
2022/10/01 05:23:10;;;;;;;4.95;3.80;;;;;;;;;;6186396;23;20103;-85
2022/10/01 05:25:36;;;;;;;3.60;3.28;;;;;;;;;;6236429;23;20404;-84
2022/10/01 05:28:15;;;;;;;5.75;5.15;;;;;;;;;;6239589;22;20045;-83
2022/10/01 05:30:41;;;;;;;5.95;5.35;;;;;;;;;;6284633;22;20456;-84
2022/10/01 05:33:08;;;;;;;7.15;5.45;;;;;;;;;;6277243;22;20482;-84
2022/10/01 05:35:34;;;;;;;7.38;5.05;;;;;;;;;;6339620;22;20046;-84
2022/10/01 05:38:18;;;;;;;7.18;6.03;;;;;;;;;;6307195;22;20011;-84
2022/10/01 05:40:46;;;;;;;5.90;5.38;;;;;;;;;;6308314;22;20016;-84
2022/10/01 05:43:12;;;;;;;5.93;5.43;;;;;;;;;;6288108;22;20011;-85
2022/10/01 05:45:38;;;;;;;8.80;7.05;;;;;;;;;;6288495;22;20030;-86
2022/10/01 05:51:00;;;;;;;7.95;7.15;;;;;;;;;;6295943;22;20105;-83
2022/10/01 05:53:26;;;;;;;8.45;7.03;;;;;;;;;;6295290;22;20046;-84
2022/10/01 05:59:34;;;;;;;7.18;6.45;;;;;;;;;;6295120;22;20049;-86
2022/10/01 06:02:00;;;;;;;8.20;7.13;;;;;;;;;;6240749;22;20447;-85
2022/10/01 06:04:27;;;;;;;8.48;7.10;;;;;;;;;;6268248;22;20080;-85
2022/10/01 06:06:53;;;;;;;7.68;6.97;;;;;;;;;;6267988;22;20105;-85
2022/10/01 06:11:48;;;;;;;6.70;6.10;;;;;;;;;;6273248;22;20051;-85
2022/10/01 06:14:15;;;;;;;8.65;7.70;;;;;;;;;;6238192;22;20062;-84
2022/10/01 06:16:41;;;;;;;11.68;8.52;;;;;;;;;;6241251;22;20022;-85
2022/10/01 06:19:07;;;;;;;13.10;8.80;;;;;;;;;;6268459;22;20480;-84
2022/10/01 06:21:34;;;;;;;10.05;8.82;;;;;;;;;;6268872;22;20106;-83
2022/10/01 06:24:00;;;;;;;9.30;8.07;;;;;;;;;;6241365;22;20046;-84
2022/10/01 06:26:27;;;;;;;9.90;8.25;;;;;;;;;;6268456;22;20059;-85
2022/10/01 06:28:53;;;;;;;10.10;9.10;;;;;;;;;;6269635;22;20023;-83
2022/10/01 06:31:20;;;;;;;8.48;7.38;;;;;;;;;;6241366;22;20019;-82
2022/10/01 06:33:46;;;;;;;10.32;9.23;;;;;;;;;;6243879;22;20024;-85
2022/10/01 06:36:12;;;;;;;9.02;8.13;;;;;;;;;;6267365;22;20113;-84
2022/10/01 06:38:38;;;;;;;10.30;9.23;;;;;;;;;;6241322;22;20803;-84
2022/10/01 06:41:04;;;;;;;14.70;10.68;;;;;;;;;;6239312;22;20051;-85
2022/10/01 06:43:31;;;;;;;14.23;11.02;;;;;;;;;;6241233;22;20513;-84
2022/10/01 06:46:00;;;;;;;15.02;10.40;;;;;;;;;;6266513;22;20340;-85
2022/10/01 06:48:27;;;;;;;12.15;10.13;;;;;;;;;;6216250;22;20027;-85
2022/10/01 06:50:55;;;;;;;15.02;11.18;;;;;;;;;;6270091;22;20035;-84
2022/10/01 06:53:21;;;;;;;12.73;11.52;;;;;;;;;;6214545;22;20312;-83
2022/10/01 06:55:48;;;;;;;13.68;11.10;;;;;;;;;;6272297;22;20073;-84
2022/10/01 06:58:14;;;;;;;13.02;10.82;;;;;;;;;;6269454;22;20023;-83
2022/10/01 07:00:42;;;;;;;15.63;11.48;;;;;;;;;;6245510;22;20055;-84
2022/10/01 07:03:09;;;;;;;12.77;11.32;;;;;;;;;;6243179;22;20050;-83
2022/10/01 07:05:36;;;;;;;14.85;10.68;;;;;;;;;;6273750;22;20123;-83
2022/10/01 07:08:02;;;;;;;13.63;11.43;;;;;;;;;;6243228;22;20421;-83
2022/10/01 07:10:29;;;;;;;16.38;12.18;;;;;;;;;;6245784;22;20047;-85
2022/10/01 07:12:55;;;;;;;17.77;12.13;;;;;;;;;;6274616;22;20051;-82
2022/10/01 07:15:22;;;;;;;13.95;11.70;;;;;;;;;;6245068;22;20019;-84
2022/10/01 07:17:49;;;;;;;16.42;11.85;;;;;;;;;;6270365;22;20023;-83
2022/10/01 07:20:16;;;;;;;15.25;10.60;;;;;;;;;;6275238;22;20020;-83
2022/10/01 07:22:43;;;;;;;20.80;11.35;;;;;;;;;;6227200;22;20022;-84
2022/10/01 07:25:09;;;;;;;16.35;11.20;;;;;;;;;;6231423;22;20024;-85
2022/10/01 07:27:35;;;;;;;14.95;11.23;;;;;;;;;;6272677;22;20048;-85
2022/10/01 07:30:01;;;;;;;15.73;10.57;;;;;;;;;;6244721;22;20024;-83
2022/10/01 07:32:31;;;;;;;18.35;10.50;;;;;;;;;;6247999;22;20075;-85
2022/10/01 07:34:58;;;;;;;14.05;9.52;;;;;;;;;;6272518;22;20016;-84
2022/10/01 07:37:24;;;;;;;21.23;9.32;;;;;;;;;;6245431;22;20015;-84
2022/10/01 07:39:50;;;;;;;14.73;7.30;;;;;;;;;;6219613;22;20011;-84
2022/10/01 07:42:16;;;;;;;11.95;6.65;;;;;;;;;;6195258;22;20506;-86
2022/10/01 07:45:05;;;;;;;24.55;8.45;;;;;;;;;;6196119;22;20015;-85
2022/10/01 07:47:31;;;;;;;17.48;6.30;;;;;;;;;;6244499;22;20063;-85
2022/10/01 07:50:07;;;;;;;20.67;7.38;;;;;;;;;;6245763;22;20039;-88
2022/10/01 07:52:33;;;;;;;13.02;6.95;;;;;;;;;;6219725;22;20557;-84
2022/10/01 07:55:18;;;;;;;13.82;8.02;;;;;;;;;;6246565;22;20073;-85
2022/10/01 07:57:49;;;;;;;16.70;9.13;;;;;;;;;;6219060;22;20785;-84
2022/10/01 08:03:11;;;;;;;13.27;7.55;;;;;;;;;;6289039;22;20494;-85
2022/10/01 08:05:39;;;;;;;17.10;7.80;;;;;;;;;;6251332;22;20102;-86
2022/10/01 08:11:09;;;;;;;12.70;6.30;;;;;;;;;;6306949;22;20050;-87
2022/10/01 08:13:36;;;;;;;15.32;6.85;;;;;;;;;;6244394;22;20019;-86
2022/10/01 08:18:41;;;;;;;24.17;4.90;;;;;;;;;;6307775;22;20030;-85
2022/10/01 08:21:08;;;;;;;14.18;4.53;;;;;;;;;;6254182;22;20015;-83
2022/10/01 08:23:52;;;;;;;12.35;4.30;;;;;;;;;;6282720;22;20407;-83
2022/10/01 08:26:18;;;;;;;24.17;4.75;;;;;;;;;;6253456;22;20453;-83
2022/10/01 08:28:44;;;;;;;16.23;4.50;;;;;;;;;;6226956;22;20097;-84
2022/10/01 08:31:13;;;;;;;16.58;3.80;;;;;;;;;;6278851;22;20016;-84
2022/10/01 08:33:39;;;;;;;19.60;4.57;;;;;;;;;;6267796;22;20096;-85
2022/10/01 08:36:11;;;;;;;15.20;3.70;;;;;;;;;;6283781;22;20022;-83
2022/10/01 08:38:39;;;;;;;19.98;3.30;;;;;;;;;;6308146;22;20030;-84
2022/10/01 08:41:31;;;;;;;21.58;4.05;;;;;;;;;;6310497;22;20019;-82
2022/10/01 08:43:59;;;;;;;24.33;4.32;;;;;;;;;;6303457;22;20038;-83
2022/10/01 08:46:47;;;;;;;18.98;2.83;;;;;;;;;;6286865;22;20019;-83
2022/10/01 08:49:23;;;;;;;12.35;3.15;;;;;;;;;;6308190;22;20026;-85
2022/10/01 08:51:54;;;;;;;13.57;3.08;;;;;;;;;;6337952;22;20018;-82
2022/10/01 08:54:32;;;;;;;11.00;2.50;;;;;;;;;;6334003;22;20021;-83
2022/10/01 08:57:15;;;;;;;12.02;3.00;;;;;;;;;;6337402;22;20197;-85
2022/10/01 08:59:46;;;;;;;15.55;2.38;;;;;;;;;;6337116;22;20115;-84
2022/10/01 09:02:18;;;;;;;12.07;2.35;;;;;;;;;;6284073;22;20057;-84
2022/10/01 09:04:45;;;;;;;12.18;2.00;;;;;;;;;;6345331;22;20054;-84
2022/10/01 09:07:34;;;;;;;12.98;2.47;;;;;;;;;;6288547;22;20042;-82
2022/10/01 09:10:19;;;;;;;13.82;2.67;;;;;;;;;;6275481;22;20015;-83
2022/10/01 09:12:48;;;;;;;9.80;2.05;;;;;;;;;;6317702;22;20026;-84
2022/10/01 09:15:14;;;;;;;35.10;4.25;;;;;;;;;;6316636;22;20403;-84
2022/10/01 09:17:40;;;;;;;17.80;2.60;;;;;;;;;;6288861;22;20026;-84
2022/10/01 09:20:31;;;;;;;14.45;3.00;;;;;;;;;;6312144;22;20019;-84
2022/10/01 09:23:06;;;;;;;16.60;2.80;;;;;;;;;;6310102;22;20038;-83
2022/10/01 09:25:34;;;;;;;13.27;2.28;;;;;;;;;;6338874;22;20019;-84
2022/10/01 09:28:23;;;;;;;25.80;3.38;;;;;;;;;;6310731;22;20019;-83
2022/10/01 09:30:50;;;;;;;11.88;2.13;;;;;;;;;;6319260;22;20023;-84
2022/10/01 09:43:30;;;;;;;13.63;2.55;;;;;;;;;;6295281;22;20100;-84
2022/10/01 09:53:05;;;;;;;8.00;1.55;;;;;;;;;;6274510;22;20054;-86
2022/10/01 09:55:38;;;;;;;10.02;1.52;;;;;;;;;;6272915;22;20024;-84
2022/10/01 10:01:44;;;;;;;11.38;1.33;;;;;;;;;;6298152;22;20064;-82
2022/10/01 10:04:10;;;;;;;7.15;1.35;;;;;;;;;;6305659;22;20023;-85
2022/10/01 10:06:37;;;;;;;4.93;1.35;;;;;;;;;;6301459;22;20053;-84
2022/10/01 10:09:04;;;;;;;9.48;1.98;;;;;;;;;;6303758;22;20023;-84
2022/10/01 10:11:31;;;;;;;8.85;1.98;;;;;;;;;;6302336;22;20019;-83
2022/10/01 10:14:15;;;;;;;9.88;1.58;;;;;;;;;;6304035;22;20047;-84
2022/10/01 10:16:45;;;;;;;;;;;15.90;99.90;;;;;;6305059;22;20026;-85
2022/10/01 10:32:54;;;;;;;6.88;1.60;;;;;;;;;;6326997;22;20031;-85
2022/10/01 11:02:29;;;;;;;7.25;1.23;;;;;;;;;;6268179;22;20069;-85
2022/10/01 11:04:56;;;;;;;5.57;1.10;;;;;;;;;;6244815;22;20022;-85
2022/10/01 11:07:23;;;;;;;3.13;0.88;;;;;;;;;;6228505;22;20019;-85
2022/10/01 11:10:18;;;;;;;;;;;;;;;;;;;;;
2022/10/01 11:12:56;;;;;;;4.15;0.95;;;;;;;;;;6242320;22;20027;-84
2022/10/01 11:15:25;;;;;;;4.78;1.00;;;;;;;;;;6244745;22;20020;-84
2022/10/01 11:18:09;;;;;;;7.75;1.13;;;;;;;;;;6217054;22;20055;-85
2022/10/01 11:20:42;;;;;;;5.95;1.13;;;;;;;;;;6270756;22;20042;-85
2022/10/01 11:23:21;;;;;;;4.80;1.15;;;;;;;;;;6244068;22;20026;-84
2022/10/01 11:26:02;;;;;;;3.97;0.90;;;;;;;;;;6241849;22;20073;-83
2022/10/01 11:28:28;;;;;;;8.27;1.63;;;;;;;;;;6243161;22;20024;-83
2022/10/01 11:31:00;;;;;;;10.27;2.38;;;;;;;;;;6265828;22;20011;-84
2022/10/01 11:33:26;;;;;;;6.90;1.63;;;;;;;;;;6242298;22;20030;-84
2022/10/01 11:36:01;;;;;;;7.40;1.98;;;;;;;;;;6265368;22;20030;-83
2022/10/01 11:41:18;;;;;;;5.50;1.33;;;;;;;;;;6294656;22;20192;-84
2022/10/01 11:43:48;;;;;;;3.78;1.15;;;;;;;;;;6271145;22;20027;-83
2022/10/01 11:46:20;;;;;;;8.38;1.80;;;;;;;;;;6243720;22;20457;-84
2022/10/01 11:48:50;;;;;;;4.57;1.15;;;;;;;;;;6296419;22;20012;-83
2022/10/01 11:51:39;;;;;;;2.60;0.95;;;;;;;;;;6249581;22;20037;-83
2022/10/01 11:54:07;;;;;;;4.95;1.83;;;;;;;;;;6296525;22;20100;-84
2022/10/01 11:59:38;;;;;;;5.70;1.10;;;;;;;;;;6297363;22;20500;-84
2022/10/01 12:02:06;;;;;;;;;;;;;;;;;;6305806;22;20436;-84
2022/10/01 12:04:52;;;;;;;5.65;1.35;;;;;;;;;;6294375;22;19919;-84
2022/10/01 12:07:38;;;;;;;6.78;1.20;;;;;;;;;;6299917;22;20019;-84
2022/10/01 12:10:24;;;;;;;5.75;1.52;;;;;;;;;;6279499;22;20389;-84
2022/10/01 12:13:14;;;;;;;6.10;1.33;;;17.60;99.90;;;;;;6304032;22;20023;-83
2022/10/01 12:19:26;;;;;;;5.78;1.33;;;;;;;;;;6326480;22;20029;-83
2022/10/01 12:25:27;;;;;;;7.47;1.30;;;;;;;;;;6331606;22;20015;-83
2022/10/01 12:28:10;;;;;;;6.55;1.90;;;;;;;;;;6304735;22;20041;-82
2022/10/01 12:30:56;;;;;;;9.65;1.95;;;;;;;;;;6277760;22;20067;-82
2022/10/01 12:33:39;;;;;;;11.75;1.98;;;;;;;;;;6338952;22;20454;-82
2022/10/01 12:38:49;;;;;;;8.00;1.90;;;;;;;;;;6306754;22;20054;31
2022/10/01 12:41:42;;;;;;;8.35;1.75;;;16.30;99.90;;;;;;6268668;22;20479;-83
2022/10/01 12:44:18;;;;;;;11.77;2.25;;;;;;;;;;6214357;22;20024;-83
2022/10/01 12:46:54;;;;;;;9.10;2.00;;;;;;;;;;6240632;22;20020;-82
2022/10/01 12:50:03;;;;;;;14.32;2.85;;;16.20;99.90;;;;;;6217138;22;20448;-83
2022/10/01 12:53:02;;;;;;;16.00;2.90;;;;;;;;;;6269238;22;20038;-83
2022/10/01 12:55:47;;;;;;;11.27;2.30;;;;;;;;;;6271202;22;20400;-83
2022/10/01 12:58:32;;;;;;;14.85;2.67;;;;;;;;;;6242331;22;20015;-84
2022/10/01 13:04:35;;;;;;;14.07;1.85;;;;;;;;;;6272056;22;20028;-85
2022/10/01 13:07:22;;;;;;;6.75;1.10;;;;;;;;;;6213403;23;20515;-83
2022/10/01 13:24:25;;;;;;;14.70;2.67;;;16.60;99.90;;;;;;6309794;22;20118;-83
2022/10/01 13:26:52;;;;;;;12.00;2.22;;;;;;;;;;6246055;23;20023;-83
2022/10/01 13:29:24;;;;;;;12.30;1.88;;;;;;;;;;6219442;23;20012;-84
2022/10/01 13:31:56;;;;;;;11.73;2.45;;;;;;;;;;6245802;23;20016;-83
2022/10/01 13:34:34;;;;;;;9.75;1.90;;;;;;;;;;6248160;23;20445;-84
2022/10/01 13:39:33;;;;;;;14.00;2.45;;;;;;;;;;6306823;22;20088;-84
2022/10/01 13:41:59;;;;;;;13.45;2.13;;;;;;;;;;6280617;22;20051;-83
2022/10/01 13:44:31;;;;;;;12.82;1.90;;;;;;;;;;6281001;22;20022;-84
2022/10/01 13:47:18;;;;;;;19.42;2.47;;;;;;;;;;6306736;22;20073;-84
2022/10/01 13:49:52;;;;;;;14.35;3.08;;;;;;;;;;6279402;22;20511;-84
2022/10/01 13:52:36;;;;;;;14.98;2.20;;;;;;;;;;6280775;22;20011;-84
2022/10/01 13:55:03;;;;;;;15.88;2.05;;;;;;;;;;6253925;22;20073;-85
2022/10/01 13:57:31;;;;;;;13.60;2.40;;;;;;;;;;6280618;22;20011;-83
2022/10/01 13:59:58;;;;;;;18.50;2.83;;;;;;;;;;6281122;22;20046;-85
2022/10/01 14:02:30;;;;;;;8.55;1.77;;;;;;;;;;6307890;22;20007;-84
2022/10/01 14:05:02;;;;;;;10.73;1.98;;;;;;;;;;6309774;22;20015;-83
2022/10/01 14:07:33;;;;;;;11.88;2.00;;;;;;;;;;6278949;22;20026;-85
2022/10/01 14:10:00;;;;;;;6.97;1.60;;;;;;;;;;6279886;22;20019;-84
2022/10/01 14:18:06;;;;;;;15.52;2.92;;;;;;;;;;6284147;22;20374;-84
2022/10/01 14:20:46;;;;;;;10.40;2.03;;;;;;;;;;6285834;22;20019;-84
2022/10/01 14:23:15;;;;;;;8.60;1.38;;;;;;;;;;6267154;22;20240;-84
2022/10/01 14:47:26;;;;;;;8.32;1.42;;;;;;;;;;6313943;22;20026;-84
2022/10/01 14:49:53;;;;;;;8.45;1.27;;;;;;;;;;6336180;22;20375;-85
2022/10/01 15:12:22;;;;;;;7.75;1.80;;;;;;;;;;6228459;23;20026;-85
2022/10/01 15:14:53;;;;;;;12.40;1.77;;;;;;;;;;6216793;23;20060;-85
2022/10/01 15:19:53;;;;;;;10.50;1.83;;;;;;;;;;6362896;22;20029;-86
2022/10/01 15:31:51;;;;;;;14.18;2.80;;;;;;;;;;6327977;22;20019;-84
2022/10/01 15:34:49;;;;;;;9.68;1.95;;;;;;;;;;6337817;22;20029;-84
2022/10/01 15:37:22;;;;;;;16.77;2.72;;;;;;;;;;6305622;22;20031;-84
2022/10/01 15:39:50;;;;;;;15.30;2.70;;;;;;;;;;6285827;22;20010;-84
2022/10/01 15:44:46;;;;;;;20.08;2.65;;;;;;;;;;6310606;22;20019;-86
2022/10/01 15:47:15;;;;;;;15.52;2.75;;;;;;;;;;6309138;22;20350;-85
2022/10/01 15:49:59;;;;;;;16.05;2.47;;;;;;;;;;6309547;22;20518;-85
2022/10/01 16:05:05;;;;;;;8.77;1.70;;;;;;;;;;6304824;22;20027;-84
2022/10/01 16:17:42;;;;;;;10.88;2.08;;;;;;;;;;6283292;22;20110;-84
2022/10/01 16:54:41;;;;;;;23.25;3.72;;;;;;;;;;6233910;22;20028;-85
2022/10/01 17:17:48;;;;;;;18.83;3.20;;;;;;;;;;6328686;22;20026;-84
2022/10/01 17:23:44;;;;;;;20.40;3.88;;;;;;;;;;6338372;22;20075;-83
2022/10/01 17:32:27;;;;;;;21.23;3.00;;;;;;;;;;6339939;22;20021;-83
2022/10/01 17:34:53;;;;;;;21.83;3.30;;;;;;;;;;6247808;22;20019;-84
2022/10/01 17:37:34;;;;;;;19.17;3.42;;;;;;;;;;6258067;22;20332;-84
2022/10/01 17:40:17;;;;;;;15.05;2.75;;;;;;;;;;6333394;22;20084;-85
2022/10/01 17:42:56;;;;;;;16.90;2.92;;;;;;;;;;6275652;22;20434;-84
2022/10/01 17:57:48;;;;;;;;;;;;;;;;;;6309241;22;20152;-85
2022/10/01 18:00:14;;;;;;;22.27;3.50;;;;;;;;;;6277677;22;20375;-82
2022/10/01 18:02:46;;;;;;;17.25;2.83;;;;;;;;;;6228727;22;20178;-84
2022/10/01 18:07:47;;;;;;;25.73;3.92;;;;;;;;;;6302336;22;20034;-84
2022/10/01 18:20:20;;;;;;;9.00;2.30;;;;;;;;;;6322770;22;20076;-84
2022/10/01 18:22:47;;;;;;;7.82;1.80;;;;;;;;;;6311025;22;20054;-85
2022/10/01 18:25:14;;;;;;;10.05;1.88;;;;;;;;;;6282816;22;20015;-85
2022/10/01 18:27:42;;;;;;;11.85;1.85;;;;;;;;;;6296246;22;20031;-85
2022/10/01 18:30:08;;;;;;;10.25;2.13;;;;;;;;;;6302775;22;20023;-84
2022/10/01 18:32:46;;;;;;;7.32;1.60;;;;;;;;;;6304212;22;20099;-86
2022/10/01 18:35:16;;;;;;;21.05;2.40;;;;;;;;;;6304409;22;20027;-86
2022/10/01 18:43:42;;;;;;;22.70;3.35;;;;;;;;;;6335358;22;20133;-84
2022/10/01 18:46:16;;;;;;;20.10;3.63;;;;;;;;;;6280815;22;20051;-83
2022/10/01 18:51:40;;;;;;;26.23;3.83;;;;;;;;;;6323135;22;20546;-84
2022/10/01 18:54:42;;;;;;;25.88;4.55;;;12.60;99.90;;;;;;6306923;22;20068;-82
2022/10/01 18:57:25;;;;;;;29.30;4.63;;;;;;;;;;6282040;22;20076;-84
2022/10/01 19:00:07;;;;;;;27.80;4.38;;;;;;;;;;6335362;22;20591;-83
2022/10/01 19:02:55;;;;;;;24.92;3.78;;;;;;;;;;6282127;22;20390;-82
2022/10/01 19:05:33;;;;;;;24.35;3.08;;;;;;;;;;6308553;22;20019;-84
2022/10/01 19:08:13;;;;;;;22.63;3.55;;;;;;;;;;6337397;22;20022;-82
2022/10/01 19:10:40;;;;;;;24.02;4.07;;;;;;;;;;6307245;22;20064;-84
2022/10/01 19:13:24;;;;;;;21.58;3.03;;;;;;;;;;6283415;22;20019;-83
2022/10/01 19:22:48;;;;;;;;;;;;;;;;;;6302001;22;20054;-84
2022/10/01 19:25:32;;;;;;;28.15;4.80;;;;;;;;;;6265971;22;19929;-83
2022/10/01 19:36:11;;;;;;;25.95;3.80;;;;;;;;;;6309734;22;20023;-83
2022/10/01 19:38:38;;;;;;;24.55;3.45;;;;;;;;;;6278043;22;20030;-83
2022/10/01 19:41:11;;;;;;;21.77;3.75;;;;;;;;;;6278049;22;20019;-83
2022/10/01 19:43:41;;;;;;;30.08;4.47;;;;;;;;;;6301546;22;20023;-83
2022/10/01 19:46:15;;;;;;;19.55;3.22;;;;;;;;;;6272462;22;20561;-82
2022/10/01 19:48:41;;;;;;;;;;;;;;;;;;6300098;22;20351;-84
2022/10/01 19:51:09;;;;;;;16.60;3.72;;;;;;;;;;6244144;22;19921;-83
2022/10/01 19:53:38;;;;;;;11.93;2.40;;;;;;;;;;6271536;22;20479;-84
2022/10/01 19:56:05;;;;;;;17.27;2.40;;;;;;;;;;6297559;22;20038;-83
2022/10/01 19:58:32;;;;;;;13.15;2.30;;;;;;;;;;6272189;22;20390;-83
2022/10/01 20:17:37;;;;;;;16.15;3.17;;;;;;;;;;6274160;22;20391;-83
2022/10/01 20:20:04;;;;;;;22.48;4.28;;;;;;;;;;6248147;22;20102;-84
2022/10/01 20:22:39;;;;;;;21.13;4.28;;;;;;;;;;6302573;22;20019;-83
2022/10/01 20:25:08;;;;;;;30.90;4.50;;;;;;;;;;6274759;22;20015;-83
2022/10/01 20:27:53;;;;;;;25.00;6.65;;;;;;;;;;6301677;22;20019;-83
2022/10/01 20:33:18;;;;;;;29.90;5.82;;;;;;;;;;6302630;22;20026;-82
2022/10/01 20:36:03;;;;;;;19.30;4.57;;;;;;;;;;6275898;22;20034;-84
2022/10/01 20:41:30;;;;;;;24.10;4.30;;;;;;;;;;6302398;22;19915;-85
2022/10/01 20:43:58;;;;;;;25.98;5.10;;;;;;;;;;6298561;22;20019;-84
2022/10/01 20:47:01;;;;;;;29.83;5.78;;;;;;;;;;6275046;22;20077;-84
2022/10/01 20:49:30;;;;;;;26.50;7.45;;;;;;;;;;6304319;22;20023;-83
2022/10/01 20:52:15;;;;;;;31.02;5.18;;;;;;;;;;6252632;22;20049;-84
2022/10/01 20:58:51;;;;;;;23.98;3.80;;;;;;;;;;6300233;22;20020;-84
2022/10/01 21:01:19;;;;;;;25.77;5.68;;;;;;;;;;6148021;23;20029;-82
2022/10/01 21:10:49;;;;;;;28.63;4.57;;;;;;;;;;6148314;23;20757;-82
2022/10/01 21:29:54;;;;;;;27.65;4.25;;;;;;;;;;6148659;23;20013;-82
2022/10/01 21:32:36;;;;;;;19.80;3.03;;;;;;;;;;6145316;23;20028;-84
2022/10/01 21:42:33;;;;;;;20.80;3.63;;;;;;;;;;6085723;23;20061;-83
2022/10/01 21:51:54;;;;;;;27.50;4.47;;;11.70;99.90;;;;;;6298712;22;20049;-82
2022/10/01 21:55:02;;;;;;;15.75;4.45;;;;;;;;;;6314605;22;20061;-83
2022/10/01 22:01:28;;;;;;;20.92;4.10;;;;;;;;;;6306035;22;20038;-83
2022/10/01 22:07:16;;;;;;;20.63;4.53;;;;;;;;;;6303161;22;20057;-83
2022/10/01 22:35:51;;;;;;;4.03;1.30;;;;;;;;;;6300600;22;20026;-83
2022/10/01 22:38:46;;;;;;;4.00;1.30;;;;;;;;;;6273766;22;20023;-83
2022/10/01 23:07:03;;;;;;;9.30;1.92;;;;;;;;;;6312083;22;20057;-83
2022/10/01 23:09:35;;;;;;;14.93;2.00;;;;;;;;;;6298051;22;20023;-83
2022/10/01 23:12:18;;;;;;;10.90;1.70;;;;;;;;;;6299321;22;20023;-84
2022/10/01 23:14:55;;;;;;;4.70;1.13;;;;;;;;;;6297397;22;20027;-84
2022/10/01 23:17:26;;;;;;;6.90;1.50;;;;;;;;;;6298970;22;20022;-84
2022/10/01 23:19:57;;;;;;;6.88;1.48;;;;;;;;;;6272135;22;20459;-83
2022/10/01 23:25:26;;;;;;;7.03;2.33;;;;;;;;;;6299855;22;20015;-84
2022/10/01 23:28:12;;;;;;;9.43;1.23;;;;;;;;;;6296681;22;20509;-84